sensor_id;sensor_type;location;lat;lon;timestamp;P1;durP1;ratioP1;P2;durP2;ratioP2
59042;SDS011;44826;51.596;5.624;2022-09-29T00:00:33;5.22;;;3.88;;
59042;SDS011;44826;51.596;5.624;2022-09-29T00:02:59;6.65;;;4.15;;
59042;SDS011;44826;51.596;5.624;2022-09-29T00:05:24;5.43;;;4.07;;
59042;SDS011;44826;51.596;5.624;2022-09-29T00:07:50;6.13;;;4.43;;
59042;SDS011;44826;51.596;5.624;2022-09-29T00:10:15;6.40;;;4.38;;
59042;SDS011;44826;51.596;5.624;2022-09-29T00:12:40;5.28;;;3.70;;
59042;SDS011;44826;51.596;5.624;2022-09-29T00:15:06;6.50;;;4.20;;
59042;SDS011;44826;51.596;5.624;2022-09-29T00:17:31;6.00;;;4.03;;
59042;SDS011;44826;51.596;5.624;2022-09-29T00:19:57;6.28;;;4.38;;
59042;SDS011;44826;51.596;5.624;2022-09-29T00:22:22;5.47;;;4.20;;
59042;SDS011;44826;51.596;5.624;2022-09-29T00:24:48;6.50;;;4.15;;
59042;SDS011;44826;51.596;5.624;2022-09-29T00:27:14;6.18;;;4.22;;
59042;SDS011;44826;51.596;5.624;2022-09-29T00:29:41;6.70;;;4.40;;
59042;SDS011;44826;51.596;5.624;2022-09-29T00:32:06;7.63;;;4.68;;
59042;SDS011;44826;51.596;5.624;2022-09-29T00:34:31;7.68;;;4.38;;
59042;SDS011;44826;51.596;5.624;2022-09-29T00:36:56;7.72;;;4.32;;
59042;SDS011;44826;51.596;5.624;2022-09-29T00:39:22;6.85;;;4.30;;
59042;SDS011;44826;51.596;5.624;2022-09-29T00:41:47;6.10;;;4.30;;
59042;SDS011;44826;51.596;5.624;2022-09-29T00:52:00;7.13;;;4.30;;
59042;SDS011;44826;51.596;5.624;2022-09-29T00:54:31;5.50;;;4.18;;
59042;SDS011;44826;51.596;5.624;2022-09-29T00:57:02;6.75;;;4.45;;
59042;SDS011;44826;51.596;5.624;2022-09-29T00:59:42;5.85;;;4.55;;
59042;SDS011;44826;51.596;5.624;2022-09-29T01:02:13;6.43;;;4.43;;
59042;SDS011;44826;51.596;5.624;2022-09-29T01:04:39;7.47;;;4.55;;
59042;SDS011;44826;51.596;5.624;2022-09-29T01:07:05;5.47;;;4.30;;
59042;SDS011;44826;51.596;5.624;2022-09-29T01:09:34;6.18;;;3.97;;
59042;SDS011;44826;51.596;5.624;2022-09-29T01:12:01;5.20;;;3.55;;
59042;SDS011;44826;51.596;5.624;2022-09-29T01:14:28;6.03;;;3.90;;
59042;SDS011;44826;51.596;5.624;2022-09-29T01:16:55;5.05;;;3.67;;
59042;SDS011;44826;51.596;5.624;2022-09-29T01:19:34;6.18;;;3.75;;
59042;SDS011;44826;51.596;5.624;2022-09-29T01:36:57;5.07;;;2.80;;
59042;SDS011;44826;51.596;5.624;2022-09-29T01:39:29;4.97;;;3.38;;
59042;SDS011;44826;51.596;5.624;2022-09-29T01:42:21;4.70;;;3.40;;
59042;SDS011;44826;51.596;5.624;2022-09-29T01:44:53;4.50;;;3.40;;
59042;SDS011;44826;51.596;5.624;2022-09-29T01:47:29;5.45;;;3.35;;
59042;SDS011;44826;51.596;5.624;2022-09-29T01:50:04;4.68;;;3.60;;
59042;SDS011;44826;51.596;5.624;2022-09-29T01:52:33;6.03;;;3.65;;
59042;SDS011;44826;51.596;5.624;2022-09-29T01:55:10;5.60;;;3.63;;
59042;SDS011;44826;51.596;5.624;2022-09-29T02:00:17;4.88;;;3.50;;
59042;SDS011;44826;51.596;5.624;2022-09-29T02:02:49;7.18;;;3.70;;
59042;SDS011;44826;51.596;5.624;2022-09-29T02:05:26;5.00;;;3.53;;
59042;SDS011;44826;51.596;5.624;2022-09-29T02:07:56;5.65;;;3.85;;
59042;SDS011;44826;51.596;5.624;2022-09-29T02:10:30;5.55;;;3.97;;
59042;SDS011;44826;51.596;5.624;2022-09-29T02:12:59;5.20;;;3.97;;
59042;SDS011;44826;51.596;5.624;2022-09-29T02:15:30;6.60;;;4.35;;
59042;SDS011;44826;51.596;5.624;2022-09-29T02:18:00;7.22;;;4.38;;
59042;SDS011;44826;51.596;5.624;2022-09-29T02:20:31;5.60;;;4.10;;
59042;SDS011;44826;51.596;5.624;2022-09-29T02:22:57;5.75;;;4.43;;
59042;SDS011;44826;51.596;5.624;2022-09-29T02:25:22;6.38;;;4.28;;
59042;SDS011;44826;51.596;5.624;2022-09-29T02:27:47;5.20;;;4.00;;
59042;SDS011;44826;51.596;5.624;2022-09-29T02:30:14;7.72;;;4.45;;
59042;SDS011;44826;51.596;5.624;2022-09-29T02:32:41;6.43;;;4.22;;
59042;SDS011;44826;51.596;5.624;2022-09-29T02:35:07;4.88;;;3.72;;
59042;SDS011;44826;51.596;5.624;2022-09-29T02:40:15;5.05;;;3.80;;
59042;SDS011;44826;51.596;5.624;2022-09-29T02:45:36;5.72;;;3.90;;
59042;SDS011;44826;51.596;5.624;2022-09-29T02:51:26;6.65;;;4.30;;
59042;SDS011;44826;51.596;5.624;2022-09-29T02:59:51;5.07;;;3.70;;
59042;SDS011;44826;51.596;5.624;2022-09-29T03:02:27;6.00;;;4.13;;
59042;SDS011;44826;51.596;5.624;2022-09-29T03:04:52;5.50;;;3.90;;
59042;SDS011;44826;51.596;5.624;2022-09-29T03:07:18;4.80;;;3.63;;
59042;SDS011;44826;51.596;5.624;2022-09-29T03:09:44;5.80;;;3.97;;
59042;SDS011;44826;51.596;5.624;2022-09-29T03:12:09;5.70;;;3.92;;
59042;SDS011;44826;51.596;5.624;2022-09-29T03:14:34;5.68;;;3.88;;
59042;SDS011;44826;51.596;5.624;2022-09-29T03:17:00;6.53;;;3.63;;
59042;SDS011;44826;51.596;5.624;2022-09-29T03:19:25;5.97;;;3.17;;
59042;SDS011;44826;51.596;5.624;2022-09-29T03:21:50;3.58;;;2.88;;
59042;SDS011;44826;51.596;5.624;2022-09-29T03:24:15;4.93;;;3.00;;
59042;SDS011;44826;51.596;5.624;2022-09-29T03:26:41;4.35;;;3.15;;
59042;SDS011;44826;51.596;5.624;2022-09-29T03:29:06;5.32;;;3.60;;
59042;SDS011;44826;51.596;5.624;2022-09-29T03:31:32;7.22;;;3.38;;
59042;SDS011;44826;51.596;5.624;2022-09-29T03:33:57;5.78;;;3.80;;
59042;SDS011;44826;51.596;5.624;2022-09-29T03:36:22;6.10;;;4.20;;
59042;SDS011;44826;51.596;5.624;2022-09-29T03:38:47;6.25;;;4.45;;
59042;SDS011;44826;51.596;5.624;2022-09-29T03:41:13;7.30;;;4.28;;
59042;SDS011;44826;51.596;5.624;2022-09-29T03:43:39;6.10;;;4.47;;
59042;SDS011;44826;51.596;5.624;2022-09-29T03:46:04;7.20;;;4.40;;
59042;SDS011;44826;51.596;5.624;2022-09-29T03:48:30;6.88;;;4.78;;
59042;SDS011;44826;51.596;5.624;2022-09-29T03:50:55;6.95;;;4.57;;
59042;SDS011;44826;51.596;5.624;2022-09-29T03:53:21;7.00;;;4.85;;
59042;SDS011;44826;51.596;5.624;2022-09-29T03:55:47;5.97;;;4.80;;
59042;SDS011;44826;51.596;5.624;2022-09-29T03:58:13;5.55;;;4.18;;
59042;SDS011;44826;51.596;5.624;2022-09-29T04:00:39;6.50;;;4.47;;
59042;SDS011;44826;51.596;5.624;2022-09-29T04:03:05;7.35;;;5.10;;
59042;SDS011;44826;51.596;5.624;2022-09-29T04:05:30;6.82;;;5.05;;
59042;SDS011;44826;51.596;5.624;2022-09-29T04:07:56;6.22;;;4.60;;
59042;SDS011;44826;51.596;5.624;2022-09-29T04:10:21;8.00;;;4.85;;
59042;SDS011;44826;51.596;5.624;2022-09-29T04:12:47;6.05;;;4.57;;
59042;SDS011;44826;51.596;5.624;2022-09-29T04:15:12;7.43;;;5.22;;
59042;SDS011;44826;51.596;5.624;2022-09-29T04:17:37;7.25;;;5.07;;
59042;SDS011;44826;51.596;5.624;2022-09-29T04:20:03;9.30;;;5.30;;
59042;SDS011;44826;51.596;5.624;2022-09-29T04:22:28;7.85;;;5.22;;
59042;SDS011;44826;51.596;5.624;2022-09-29T04:24:53;8.63;;;5.53;;
59042;SDS011;44826;51.596;5.624;2022-09-29T04:27:19;7.07;;;5.43;;
59042;SDS011;44826;51.596;5.624;2022-09-29T04:29:44;7.80;;;5.40;;
59042;SDS011;44826;51.596;5.624;2022-09-29T04:32:09;8.55;;;5.30;;
59042;SDS011;44826;51.596;5.624;2022-09-29T04:34:35;6.88;;;5.30;;
59042;SDS011;44826;51.596;5.624;2022-09-29T04:37:01;6.88;;;5.00;;
59042;SDS011;44826;51.596;5.624;2022-09-29T04:39:26;7.15;;;4.88;;
59042;SDS011;44826;51.596;5.624;2022-09-29T04:41:52;7.72;;;5.25;;
59042;SDS011;44826;51.596;5.624;2022-09-29T04:44:17;8.25;;;5.60;;
59042;SDS011;44826;51.596;5.624;2022-09-29T04:46:46;7.60;;;5.47;;
59042;SDS011;44826;51.596;5.624;2022-09-29T04:49:13;7.78;;;5.65;;
59042;SDS011;44826;51.596;5.624;2022-09-29T04:51:38;6.82;;;5.30;;
59042;SDS011;44826;51.596;5.624;2022-09-29T04:54:03;6.93;;;5.15;;
59042;SDS011;44826;51.596;5.624;2022-09-29T04:56:29;7.40;;;5.35;;
59042;SDS011;44826;51.596;5.624;2022-09-29T04:58:56;8.70;;;5.10;;
59042;SDS011;44826;51.596;5.624;2022-09-29T05:01:22;5.97;;;4.55;;
59042;SDS011;44826;51.596;5.624;2022-09-29T05:03:48;7.78;;;5.18;;
59042;SDS011;44826;51.596;5.624;2022-09-29T05:06:13;6.55;;;4.63;;
59042;SDS011;44826;51.596;5.624;2022-09-29T05:08:38;8.23;;;4.90;;
59042;SDS011;44826;51.596;5.624;2022-09-29T05:11:04;7.03;;;4.55;;
59042;SDS011;44826;51.596;5.624;2022-09-29T05:13:31;7.22;;;4.88;;
59042;SDS011;44826;51.596;5.624;2022-09-29T05:15:57;7.60;;;5.22;;
59042;SDS011;44826;51.596;5.624;2022-09-29T05:18:22;6.30;;;4.60;;
59042;SDS011;44826;51.596;5.624;2022-09-29T05:20:48;6.30;;;4.75;;
59042;SDS011;44826;51.596;5.624;2022-09-29T05:23:13;5.97;;;4.03;;
59042;SDS011;44826;51.596;5.624;2022-09-29T05:25:39;5.72;;;4.07;;
59042;SDS011;44826;51.596;5.624;2022-09-29T05:28:04;7.38;;;4.57;;
59042;SDS011;44826;51.596;5.624;2022-09-29T05:30:29;7.30;;;4.80;;
59042;SDS011;44826;51.596;5.624;2022-09-29T05:32:55;6.70;;;4.88;;
59042;SDS011;44826;51.596;5.624;2022-09-29T05:35:20;8.43;;;5.07;;
59042;SDS011;44826;51.596;5.624;2022-09-29T05:37:45;6.95;;;5.30;;
59042;SDS011;44826;51.596;5.624;2022-09-29T05:40:10;7.47;;;4.93;;
59042;SDS011;44826;51.596;5.624;2022-09-29T05:42:36;7.05;;;5.32;;
59042;SDS011;44826;51.596;5.624;2022-09-29T05:45:01;9.93;;;5.53;;
59042;SDS011;44826;51.596;5.624;2022-09-29T05:47:26;7.05;;;5.32;;
59042;SDS011;44826;51.596;5.624;2022-09-29T05:49:52;9.13;;;5.70;;
59042;SDS011;44826;51.596;5.624;2022-09-29T05:52:17;8.07;;;5.38;;
59042;SDS011;44826;51.596;5.624;2022-09-29T05:54:42;7.78;;;5.63;;
59042;SDS011;44826;51.596;5.624;2022-09-29T05:57:07;8.32;;;5.70;;
59042;SDS011;44826;51.596;5.624;2022-09-29T05:59:33;8.00;;;5.55;;
59042;SDS011;44826;51.596;5.624;2022-09-29T06:01:58;7.78;;;5.53;;
59042;SDS011;44826;51.596;5.624;2022-09-29T06:04:23;8.77;;;5.73;;
59042;SDS011;44826;51.596;5.624;2022-09-29T06:06:48;8.15;;;5.65;;
59042;SDS011;44826;51.596;5.624;2022-09-29T06:09:14;7.82;;;5.82;;
59042;SDS011;44826;51.596;5.624;2022-09-29T06:11:39;7.72;;;5.45;;
59042;SDS011;44826;51.596;5.624;2022-09-29T06:14:04;7.82;;;5.35;;
59042;SDS011;44826;51.596;5.624;2022-09-29T06:16:30;6.78;;;5.10;;
59042;SDS011;44826;51.596;5.624;2022-09-29T06:18:57;7.53;;;5.07;;
59042;SDS011;44826;51.596;5.624;2022-09-29T06:21:24;10.30;;;5.35;;
59042;SDS011;44826;51.596;5.624;2022-09-29T06:23:52;7.80;;;5.63;;
59042;SDS011;44826;51.596;5.624;2022-09-29T06:26:19;7.80;;;5.70;;
59042;SDS011;44826;51.596;5.624;2022-09-29T06:28:46;8.20;;;5.93;;
59042;SDS011;44826;51.596;5.624;2022-09-29T06:31:13;10.90;;;6.07;;
59042;SDS011;44826;51.596;5.624;2022-09-29T06:33:40;9.43;;;6.40;;
59042;SDS011;44826;51.596;5.624;2022-09-29T06:36:07;9.50;;;6.22;;
59042;SDS011;44826;51.596;5.624;2022-09-29T06:38:54;8.38;;;5.85;;
59042;SDS011;44826;51.596;5.624;2022-09-29T06:41:21;8.75;;;6.22;;
59042;SDS011;44826;51.596;5.624;2022-09-29T06:43:46;9.35;;;6.32;;
59042;SDS011;44826;51.596;5.624;2022-09-29T06:46:11;9.05;;;6.38;;
59042;SDS011;44826;51.596;5.624;2022-09-29T06:48:36;10.30;;;6.97;;
59042;SDS011;44826;51.596;5.624;2022-09-29T06:51:05;9.50;;;6.72;;
59042;SDS011;44826;51.596;5.624;2022-09-29T06:53:32;9.68;;;7.18;;
59042;SDS011;44826;51.596;5.624;2022-09-29T06:55:57;10.23;;;6.60;;
59042;SDS011;44826;51.596;5.624;2022-09-29T06:58:24;12.05;;;7.10;;
59042;SDS011;44826;51.596;5.624;2022-09-29T07:00:50;11.30;;;7.30;;
59042;SDS011;44826;51.596;5.624;2022-09-29T07:03:15;11.07;;;7.88;;
59042;SDS011;44826;51.596;5.624;2022-09-29T07:05:41;9.52;;;7.32;;
59042;SDS011;44826;51.596;5.624;2022-09-29T07:08:07;10.90;;;7.38;;
59042;SDS011;44826;51.596;5.624;2022-09-29T07:10:32;10.32;;;7.43;;
59042;SDS011;44826;51.596;5.624;2022-09-29T07:12:58;11.38;;;7.43;;
59042;SDS011;44826;51.596;5.624;2022-09-29T07:15:23;11.48;;;7.68;;
59042;SDS011;44826;51.596;5.624;2022-09-29T07:17:55;11.73;;;7.53;;
59042;SDS011;44826;51.596;5.624;2022-09-29T07:20:24;11.60;;;7.40;;
59042;SDS011;44826;51.596;5.624;2022-09-29T07:22:50;13.70;;;8.23;;
59042;SDS011;44826;51.596;5.624;2022-09-29T07:25:15;12.43;;;7.50;;
59042;SDS011;44826;51.596;5.624;2022-09-29T07:27:41;11.82;;;7.97;;
59042;SDS011;44826;51.596;5.624;2022-09-29T07:30:06;11.48;;;8.25;;
59042;SDS011;44826;51.596;5.624;2022-09-29T07:32:32;13.07;;;8.23;;
59042;SDS011;44826;51.596;5.624;2022-09-29T07:34:57;10.35;;;7.55;;
59042;SDS011;44826;51.596;5.624;2022-09-29T07:37:24;11.95;;;8.18;;
59042;SDS011;44826;51.596;5.624;2022-09-29T07:39:49;12.38;;;8.20;;
59042;SDS011;44826;51.596;5.624;2022-09-29T07:42:15;12.32;;;8.57;;
59042;SDS011;44826;51.596;5.624;2022-09-29T07:44:42;12.40;;;8.65;;
59042;SDS011;44826;51.596;5.624;2022-09-29T07:47:07;12.45;;;8.32;;
59042;SDS011;44826;51.596;5.624;2022-09-29T07:49:32;12.73;;;8.25;;
59042;SDS011;44826;51.596;5.624;2022-09-29T07:51:58;12.20;;;8.57;;
59042;SDS011;44826;51.596;5.624;2022-09-29T07:54:23;11.85;;;8.32;;
59042;SDS011;44826;51.596;5.624;2022-09-29T07:56:48;12.07;;;8.45;;
59042;SDS011;44826;51.596;5.624;2022-09-29T07:59:14;11.70;;;8.38;;
59042;SDS011;44826;51.596;5.624;2022-09-29T08:01:39;14.60;;;8.95;;
59042;SDS011;44826;51.596;5.624;2022-09-29T08:04:04;13.02;;;8.68;;
59042;SDS011;44826;51.596;5.624;2022-09-29T08:06:30;14.43;;;8.73;;
59042;SDS011;44826;51.596;5.624;2022-09-29T08:08:58;14.30;;;8.75;;
59042;SDS011;44826;51.596;5.624;2022-09-29T08:11:25;12.05;;;8.48;;
59042;SDS011;44826;51.596;5.624;2022-09-29T08:13:51;12.90;;;8.93;;
59042;SDS011;44826;51.596;5.624;2022-09-29T08:16:17;13.07;;;8.57;;
59042;SDS011;44826;51.596;5.624;2022-09-29T08:18:42;12.40;;;8.43;;
59042;SDS011;44826;51.596;5.624;2022-09-29T08:21:09;14.13;;;9.60;;
59042;SDS011;44826;51.596;5.624;2022-09-29T08:23:39;12.77;;;8.98;;
59042;SDS011;44826;51.596;5.624;2022-09-29T08:26:07;15.18;;;8.90;;
59042;SDS011;44826;51.596;5.624;2022-09-29T08:28:43;12.50;;;8.27;;
59042;SDS011;44826;51.596;5.624;2022-09-29T08:33:44;14.52;;;8.63;;
59042;SDS011;44826;51.596;5.624;2022-09-29T08:36:10;13.52;;;8.85;;
59042;SDS011;44826;51.596;5.624;2022-09-29T08:38:39;13.27;;;8.45;;
59042;SDS011;44826;51.596;5.624;2022-09-29T08:50:01;10.80;;;7.60;;
59042;SDS011;44826;51.596;5.624;2022-09-29T08:52:33;12.50;;;7.95;;
59042;SDS011;44826;51.596;5.624;2022-09-29T08:58:11;13.57;;;8.18;;
59042;SDS011;44826;51.596;5.624;2022-09-29T09:03:31;12.95;;;8.02;;
59042;SDS011;44826;51.596;5.624;2022-09-29T09:14:12;10.35;;;7.03;;
59042;SDS011;44826;51.596;5.624;2022-09-29T09:17:03;10.88;;;7.43;;
59042;SDS011;44826;51.596;5.624;2022-09-29T09:25:27;10.00;;;7.38;;
59042;SDS011;44826;51.596;5.624;2022-09-29T09:28:01;10.68;;;6.95;;
59042;SDS011;44826;51.596;5.624;2022-09-29T09:30:39;9.80;;;6.72;;
59042;SDS011;44826;51.596;5.624;2022-09-29T09:33:13;10.40;;;6.65;;
59042;SDS011;44826;51.596;5.624;2022-09-29T09:35:53;9.77;;;7.05;;
59042;SDS011;44826;51.596;5.624;2022-09-29T09:38:24;10.27;;;6.35;;
59042;SDS011;44826;51.596;5.624;2022-09-29T09:40:58;9.00;;;6.15;;
59042;SDS011;44826;51.596;5.624;2022-09-29T09:43:33;9.30;;;6.25;;
59042;SDS011;44826;51.596;5.624;2022-09-29T09:48:43;8.27;;;5.88;;
59042;SDS011;44826;51.596;5.624;2022-09-29T09:54:58;8.00;;;5.88;;
59042;SDS011;44826;51.596;5.624;2022-09-29T10:03:00;7.53;;;5.47;;
59042;SDS011;44826;51.596;5.624;2022-09-29T10:05:30;7.63;;;4.82;;
59042;SDS011;44826;51.596;5.624;2022-09-29T10:08:01;6.35;;;4.70;;
59042;SDS011;44826;51.596;5.624;2022-09-29T10:10:28;8.15;;;5.00;;
59042;SDS011;44826;51.596;5.624;2022-09-29T10:15:32;6.75;;;4.82;;
59042;SDS011;44826;51.596;5.624;2022-09-29T10:18:06;6.50;;;4.88;;
59042;SDS011;44826;51.596;5.624;2022-09-29T10:20:38;7.45;;;5.25;;
59042;SDS011;44826;51.596;5.624;2022-09-29T10:28:23;6.70;;;4.60;;
59042;SDS011;44826;51.596;5.624;2022-09-29T10:30:50;6.68;;;4.70;;
59042;SDS011;44826;51.596;5.624;2022-09-29T10:33:17;7.25;;;5.10;;
59042;SDS011;44826;51.596;5.624;2022-09-29T10:35:48;6.22;;;4.82;;
59042;SDS011;44826;51.596;5.624;2022-09-29T10:38:17;5.35;;;4.25;;
59042;SDS011;44826;51.596;5.624;2022-09-29T10:41:00;7.00;;;4.43;;
59042;SDS011;44826;51.596;5.624;2022-09-29T10:43:36;7.38;;;4.53;;
59042;SDS011;44826;51.596;5.624;2022-09-29T10:46:03;5.55;;;4.20;;
59042;SDS011;44826;51.596;5.624;2022-09-29T10:48:30;5.80;;;4.10;;
59042;SDS011;44826;51.596;5.624;2022-09-29T10:51:03;6.50;;;4.30;;
59042;SDS011;44826;51.596;5.624;2022-09-29T10:53:41;5.85;;;4.25;;
59042;SDS011;44826;51.596;5.624;2022-09-29T10:56:20;6.57;;;3.97;;
59042;SDS011;44826;51.596;5.624;2022-09-29T10:58:52;5.78;;;3.65;;
59042;SDS011;44826;51.596;5.624;2022-09-29T11:01:19;6.20;;;3.90;;
59042;SDS011;44826;51.596;5.624;2022-09-29T11:03:50;5.80;;;3.67;;
59042;SDS011;44826;51.596;5.624;2022-09-29T11:06:24;6.32;;;3.92;;
59042;SDS011;44826;51.596;5.624;2022-09-29T11:08:59;5.90;;;4.07;;
59042;SDS011;44826;51.596;5.624;2022-09-29T11:11:33;6.28;;;4.13;;
59042;SDS011;44826;51.596;5.624;2022-09-29T11:14:00;6.38;;;4.20;;
59042;SDS011;44826;51.596;5.624;2022-09-29T11:16:35;5.75;;;3.80;;
59042;SDS011;44826;51.596;5.624;2022-09-29T11:19:08;5.65;;;3.80;;
59042;SDS011;44826;51.596;5.624;2022-09-29T11:27:14;6.53;;;3.83;;
59042;SDS011;44826;51.596;5.624;2022-09-29T11:29:55;6.90;;;3.60;;
59042;SDS011;44826;51.596;5.624;2022-09-29T11:32:38;5.15;;;3.22;;
59042;SDS011;44826;51.596;5.624;2022-09-29T11:46:48;5.28;;;3.15;;
59042;SDS011;44826;51.596;5.624;2022-09-29T11:48:57;7.05;;;3.40;;
59042;SDS011;44826;51.596;5.624;2022-09-29T11:57:35;5.13;;;3.30;;
59042;SDS011;44826;51.596;5.624;2022-09-29T12:00:07;5.88;;;3.85;;
59042;SDS011;44826;51.596;5.624;2022-09-29T12:15:58;5.07;;;3.53;;
59042;SDS011;44826;51.596;5.624;2022-09-29T12:21:04;5.43;;;3.38;;
59042;SDS011;44826;51.596;5.624;2022-09-29T12:23:31;6.78;;;3.40;;
59042;SDS011;44826;51.596;5.624;2022-09-29T12:26:03;4.78;;;3.38;;
59042;SDS011;44826;51.596;5.624;2022-09-29T12:31:26;5.78;;;3.90;;
59042;SDS011;44826;51.596;5.624;2022-09-29T12:33:57;4.40;;;3.40;;
59042;SDS011;44826;51.596;5.624;2022-09-29T12:50:37;4.40;;;3.15;;
59042;SDS011;44826;51.596;5.624;2022-09-29T12:59:01;5.95;;;2.90;;
59042;SDS011;44826;51.596;5.624;2022-09-29T13:01:27;3.60;;;2.75;;
59042;SDS011;44826;51.596;5.624;2022-09-29T13:04:16;3.25;;;2.40;;
59042;SDS011;44826;51.596;5.624;2022-09-29T13:13:07;5.18;;;2.40;;
59042;SDS011;44826;51.596;5.624;2022-09-29T13:29:15;4.47;;;2.25;;
59042;SDS011;44826;51.596;5.624;2022-09-29T13:31:45;3.63;;;2.50;;
59042;SDS011;44826;51.596;5.624;2022-09-29T13:34:20;5.20;;;2.30;;
59042;SDS011;44826;51.596;5.624;2022-09-29T13:36:53;3.30;;;2.13;;
59042;SDS011;44826;51.596;5.624;2022-09-29T13:39:29;3.80;;;1.95;;
59042;SDS011;44826;51.596;5.624;2022-09-29T13:41:55;4.05;;;2.03;;
59042;SDS011;44826;51.596;5.624;2022-09-29T13:44:21;2.83;;;1.98;;
59042;SDS011;44826;51.596;5.624;2022-09-29T13:46:51;2.95;;;1.85;;
59042;SDS011;44826;51.596;5.624;2022-09-29T13:49:23;2.88;;;1.92;;
59042;SDS011;44826;51.596;5.624;2022-09-29T13:51:52;2.60;;;2.00;;
59042;SDS011;44826;51.596;5.624;2022-09-29T13:54:39;4.20;;;1.90;;
59042;SDS011;44826;51.596;5.624;2022-09-29T13:59:41;3.90;;;1.85;;
59042;SDS011;44826;51.596;5.624;2022-09-29T14:02:17;2.95;;;1.80;;
59042;SDS011;44826;51.596;5.624;2022-09-29T14:04:52;4.53;;;1.90;;
59042;SDS011;44826;51.596;5.624;2022-09-29T14:10:19;2.13;;;1.60;;
59042;SDS011;44826;51.596;5.624;2022-09-29T14:12:57;3.28;;;1.70;;
59042;SDS011;44826;51.596;5.624;2022-09-29T14:15:30;3.28;;;2.10;;
59042;SDS011;44826;51.596;5.624;2022-09-29T14:20:29;1.85;;;1.13;;
59042;SDS011;44826;51.596;5.624;2022-09-29T14:23:05;2.20;;;1.00;;
59042;SDS011;44826;51.596;5.624;2022-09-29T14:28:11;1.02;;;0.70;;
59042;SDS011;44826;51.596;5.624;2022-09-29T14:30:41;1.48;;;0.70;;
59042;SDS011;44826;51.596;5.624;2022-09-29T14:35:52;1.63;;;0.88;;
59042;SDS011;44826;51.596;5.624;2022-09-29T14:38:25;1.40;;;0.98;;
59042;SDS011;44826;51.596;5.624;2022-09-29T14:40:55;2.78;;;1.27;;
59042;SDS011;44826;51.596;5.624;2022-09-29T14:43:20;1.63;;;1.10;;
59042;SDS011;44826;51.596;5.624;2022-09-29T14:52:08;1.42;;;1.00;;
59042;SDS011;44826;51.596;5.624;2022-09-29T14:54:52;2.33;;;0.93;;
59042;SDS011;44826;51.596;5.624;2022-09-29T14:57:37;1.77;;;1.00;;
59042;SDS011;44826;51.596;5.624;2022-09-29T15:00:20;2.92;;;1.05;;
59042;SDS011;44826;51.596;5.624;2022-09-29T15:02:51;1.92;;;1.15;;
59042;SDS011;44826;51.596;5.624;2022-09-29T15:07:53;1.52;;;1.20;;
59042;SDS011;44826;51.596;5.624;2022-09-29T15:10:21;2.35;;;1.40;;
59042;SDS011;44826;51.596;5.624;2022-09-29T15:12:51;2.95;;;1.42;;
59042;SDS011;44826;51.596;5.624;2022-09-29T15:15:30;2.15;;;1.23;;
59042;SDS011;44826;51.596;5.624;2022-09-29T15:18:01;2.90;;;1.48;;
59042;SDS011;44826;51.596;5.624;2022-09-29T15:20:48;3.22;;;1.42;;
59042;SDS011;44826;51.596;5.624;2022-09-29T15:23:33;1.65;;;1.40;;
59042;SDS011;44826;51.596;5.624;2022-09-29T15:26:16;1.98;;;1.42;;
59042;SDS011;44826;51.596;5.624;2022-09-29T15:28:42;2.63;;;1.50;;
59042;SDS011;44826;51.596;5.624;2022-09-29T15:31:10;3.53;;;1.50;;
59042;SDS011;44826;51.596;5.624;2022-09-29T15:33:41;2.33;;;1.20;;
59042;SDS011;44826;51.596;5.624;2022-09-29T15:36:19;3.63;;;1.60;;
59042;SDS011;44826;51.596;5.624;2022-09-29T15:38:51;2.13;;;1.30;;
59042;SDS011;44826;51.596;5.624;2022-09-29T15:41:19;2.67;;;1.50;;
59042;SDS011;44826;51.596;5.624;2022-09-29T15:43:52;3.75;;;1.48;;
59042;SDS011;44826;51.596;5.624;2022-09-29T15:46:37;2.03;;;1.30;;
59042;SDS011;44826;51.596;5.624;2022-09-29T15:49:21;2.20;;;1.27;;
59042;SDS011;44826;51.596;5.624;2022-09-29T15:51:58;1.42;;;0.90;;
59042;SDS011;44826;51.596;5.624;2022-09-29T15:54:25;2.28;;;1.40;;
59042;SDS011;44826;51.596;5.624;2022-09-29T15:56:55;1.67;;;1.20;;
59042;SDS011;44826;51.596;5.624;2022-09-29T15:59:43;1.67;;;1.27;;
59042;SDS011;44826;51.596;5.624;2022-09-29T16:02:34;2.40;;;1.50;;
59042;SDS011;44826;51.596;5.624;2022-09-29T16:05:04;2.85;;;2.00;;
59042;SDS011;44826;51.596;5.624;2022-09-29T16:07:34;3.28;;;2.05;;
59042;SDS011;44826;51.596;5.624;2022-09-29T16:10:15;4.63;;;2.58;;
59042;SDS011;44826;51.596;5.624;2022-09-29T16:12:47;3.60;;;2.70;;
59042;SDS011;44826;51.596;5.624;2022-09-29T16:16:03;5.45;;;2.60;;
59042;SDS011;44826;51.596;5.624;2022-09-29T16:18:09;4.85;;;2.85;;
59042;SDS011;44826;51.596;5.624;2022-09-29T16:20:42;5.30;;;2.85;;
59042;SDS011;44826;51.596;5.624;2022-09-29T16:28:30;4.10;;;2.53;;
59042;SDS011;44826;51.596;5.624;2022-09-29T16:31:05;4.07;;;2.70;;
59042;SDS011;44826;51.596;5.624;2022-09-29T16:33:42;3.60;;;2.60;;
59042;SDS011;44826;51.596;5.624;2022-09-29T16:36:19;3.55;;;2.60;;
59042;SDS011;44826;51.596;5.624;2022-09-29T16:38:51;3.55;;;2.65;;
59042;SDS011;44826;51.596;5.624;2022-09-29T16:49:55;3.83;;;2.50;;
59042;SDS011;44826;51.596;5.624;2022-09-29T16:52:23;4.10;;;2.63;;
59042;SDS011;44826;51.596;5.624;2022-09-29T16:55:15;4.28;;;2.92;;
59042;SDS011;44826;51.596;5.624;2022-09-29T16:58:15;4.00;;;2.85;;
59042;SDS011;44826;51.596;5.624;2022-09-29T17:00:36;4.28;;;2.95;;
59042;SDS011;44826;51.596;5.624;2022-09-29T17:03:01;4.70;;;2.90;;
59042;SDS011;44826;51.596;5.624;2022-09-29T17:05:32;3.72;;;3.10;;
59042;SDS011;44826;51.596;5.624;2022-09-29T17:08:01;5.25;;;2.97;;
59042;SDS011;44826;51.596;5.624;2022-09-29T17:10:28;5.28;;;3.45;;
59042;SDS011;44826;51.596;5.624;2022-09-29T17:12:54;4.97;;;3.47;;
59042;SDS011;44826;51.596;5.624;2022-09-29T17:15:20;5.53;;;4.00;;
59042;SDS011;44826;51.596;5.624;2022-09-29T17:17:47;4.22;;;3.30;;
59042;SDS011;44826;51.596;5.624;2022-09-29T17:20:14;5.60;;;3.75;;
59042;SDS011;44826;51.596;5.624;2022-09-29T17:22:42;4.95;;;3.58;;
59042;SDS011;44826;51.596;5.624;2022-09-29T17:25:09;4.72;;;4.05;;
59042;SDS011;44826;51.596;5.624;2022-09-29T17:27:35;5.22;;;3.72;;
59042;SDS011;44826;51.596;5.624;2022-09-29T17:30:20;5.03;;;3.90;;
59042;SDS011;44826;51.596;5.624;2022-09-29T17:32:48;5.75;;;3.83;;
59042;SDS011;44826;51.596;5.624;2022-09-29T17:35:18;5.45;;;3.58;;
59042;SDS011;44826;51.596;5.624;2022-09-29T17:37:48;4.63;;;3.70;;
59042;SDS011;44826;51.596;5.624;2022-09-29T17:40:21;6.30;;;4.13;;
59042;SDS011;44826;51.596;5.624;2022-09-29T17:42:49;5.20;;;4.30;;
59042;SDS011;44826;51.596;5.624;2022-09-29T17:45:18;7.32;;;4.65;;
59042;SDS011;44826;51.596;5.624;2022-09-29T17:47:45;6.45;;;4.68;;
59042;SDS011;44826;51.596;5.624;2022-09-29T17:52:57;6.70;;;4.70;;
59042;SDS011;44826;51.596;5.624;2022-09-29T17:55:23;6.55;;;4.90;;
59042;SDS011;44826;51.596;5.624;2022-09-29T17:57:50;8.48;;;5.30;;
59042;SDS011;44826;51.596;5.624;2022-09-29T18:00:24;9.60;;;4.95;;
59042;SDS011;44826;51.596;5.624;2022-09-29T18:02:52;8.68;;;5.40;;
59042;SDS011;44826;51.596;5.624;2022-09-29T18:05:25;9.48;;;5.95;;
59042;SDS011;44826;51.596;5.624;2022-09-29T18:07:52;11.90;;;5.90;;
59042;SDS011;44826;51.596;5.624;2022-09-29T18:10:30;9.23;;;5.53;;
59042;SDS011;44826;51.596;5.624;2022-09-29T18:13:02;10.10;;;5.85;;
59042;SDS011;44826;51.596;5.624;2022-09-29T18:15:28;8.52;;;5.38;;
59042;SDS011;44826;51.596;5.624;2022-09-29T18:17:53;9.20;;;5.10;;
59042;SDS011;44826;51.596;5.624;2022-09-29T18:20:23;7.88;;;5.47;;
59042;SDS011;44826;51.596;5.624;2022-09-29T18:22:48;8.25;;;5.38;;
59042;SDS011;44826;51.596;5.624;2022-09-29T18:25:14;8.35;;;5.88;;
59042;SDS011;44826;51.596;5.624;2022-09-29T18:27:44;9.05;;;6.15;;
59042;SDS011;44826;51.596;5.624;2022-09-29T18:30:21;8.98;;;5.68;;